Time;durP1;ratioP1;P1;durP2;ratioP2;P2;SDS_P1;SDS_P2;PMS_P1;PMS_P2;Temp;Humidity;BMP_temperature;BMP_pressure;BME280_temperature;BME280_humidity;BME280_pressure;Samples;Min_cycle;Max_cycle;Signal;HPM_P1;HPM_P2
2023/09/09 00:02:21;;;;;;;10.82;7.57;;;;;;;-148.88;100.00;-17125.47;4935427;29;20024;-72
2023/09/09 00:04:46;;;;;;;9.57;7.88;;;;;;;-148.88;100.00;-17125.47;4935417;29;20047;-72
2023/09/09 00:07:12;;;;;;;9.70;8.07;;;;;;;-148.88;100.00;-17125.47;4935335;29;20020;-72
2023/09/09 00:09:41;;;;;;;9.55;8.20;;;;;;;-148.88;100.00;-17125.47;4935352;29;20023;-73
2023/09/09 00:12:06;;;;;;;12.10;8.00;;;;;;;-148.88;100.00;-17125.47;4935395;29;20055;-72
2023/09/09 00:14:32;;;;;;;10.45;7.78;;;;;;;-148.88;100.00;-17125.47;4934737;29;20063;-73
2023/09/09 00:16:57;;;;;;;9.45;8.23;;;;;;;-148.88;100.00;-17125.47;4935138;29;20038;-72
2023/09/09 00:19:24;;;;;;;10.05;8.00;;;;;;;-148.88;100.00;-17125.47;4935301;29;20545;-73
2023/09/09 00:21:49;;;;;;;9.38;8.38;;;;;;;-148.88;100.00;-17125.47;4935138;29;20032;-72
2023/09/09 00:24:15;;;;;;;8.43;7.40;;;;;;;-148.88;100.00;-17125.47;4935441;29;20151;-72
2023/09/09 00:26:41;;;;;;;9.73;8.25;;;;;;;-148.88;100.00;-17125.47;4934990;29;20051;-72
2023/09/09 00:29:06;;;;;;;13.32;8.25;;;;;;;-148.88;100.00;-17125.47;4933745;29;20078;-72
2023/09/09 00:31:32;;;;;;;10.93;8.45;;;;;;;-148.88;100.00;-17125.47;4935032;29;20051;-73
2023/09/09 00:33:57;;;;;;;9.35;7.93;;;;;;;-148.88;100.00;-17125.47;4933779;29;20082;-72
2023/09/09 00:36:22;;;;;;;9.93;8.50;;;;;;;-148.88;100.00;-17125.47;4934882;29;20512;-72
2023/09/09 00:38:50;;;;;;;12.15;8.50;;;;;;;-148.88;100.00;-17125.47;4917958;29;20034;-72
2023/09/09 00:41:17;;;;;;;9.77;8.35;;;;;;;-148.88;100.00;-17125.47;4933857;29;20024;-72
2023/09/09 00:43:44;;;;;;;11.63;8.65;;;;;;;-148.88;100.00;-17125.47;4934944;29;20059;-72
2023/09/09 00:46:11;;;;;;;10.13;8.25;;;;;;;-148.88;100.00;-17125.47;4933612;29;20509;-72
2023/09/09 00:48:39;;;;;;;9.60;8.40;;;;;;;-148.88;100.00;-17125.47;4935182;29;20027;-72
2023/09/09 00:51:05;;;;;;;12.07;8.98;;;;;;;-148.88;100.00;-17125.47;4935520;29;20027;-73
2023/09/09 00:53:34;;;;;;;11.95;8.57;;;;;;;-148.88;100.00;-17125.47;4933884;29;20401;-72
2023/09/09 00:56:01;;;;;;;11.63;8.40;;;;;;;-148.88;100.00;-17125.47;4934894;29;20032;-72
2023/09/09 00:58:30;;;;;;;12.60;8.40;;;;;;;-148.88;100.00;-17125.47;4933596;29;20406;-72
2023/09/09 01:00:56;;;;;;;11.52;8.55;;;;;;;-148.88;100.00;-17125.47;4936151;29;20107;-72
2023/09/09 01:03:21;;;;;;;11.30;9.13;;;;;;;-148.88;100.00;-17125.47;4938784;29;20166;-72
2023/09/09 01:05:47;;;;;;;10.60;8.75;;;;;;;-148.88;100.00;-17125.47;4939073;29;20020;-73
2023/09/09 01:08:24;;;;;;;9.38;8.38;;;;;;;-148.88;100.00;-17125.47;4938538;29;20028;-71
2023/09/09 01:10:51;;;;;;;12.20;8.90;;;;;;;-148.88;100.00;-17125.47;4937832;29;20028;-72
2023/09/09 01:13:17;;;;;;;10.95;8.85;;;;;;;-148.88;100.00;-17125.47;4937344;29;20028;-72
2023/09/09 01:15:42;;;;;;;9.95;8.52;;;;;;;-148.88;100.00;-17125.47;4938518;29;20505;-72
2023/09/09 01:18:08;;;;;;;13.32;9.27;;;;;;;-148.88;100.00;-17125.47;4938601;29;20099;-71
2023/09/09 01:20:37;;;;;;;11.00;8.82;;;;;;;-148.88;100.00;-17125.47;4938730;29;20542;-71
2023/09/09 01:23:03;;;;;;;11.02;9.25;;;;;;;-148.88;100.00;-17125.47;4937595;29;20083;-72
2023/09/09 01:25:28;;;;;;;11.68;9.00;;;;;;;-148.88;100.00;-17125.47;4938805;29;20020;-72
2023/09/09 01:27:53;;;;;;;9.57;8.48;;;;;;;-148.88;100.00;-17125.47;4938607;29;20437;-72
2023/09/09 01:30:19;;;;;;;12.38;9.57;;;;;;;-148.88;100.00;-17125.47;4938662;29;20437;-72
2023/09/09 01:32:44;;;;;;;11.40;8.80;;;;;;;-148.88;100.00;-17125.47;4936998;29;20055;-72
2023/09/09 01:35:10;;;;;;;11.05;8.68;;;;;;;-148.88;100.00;-17125.47;4938498;29;20023;-71
2023/09/09 01:37:35;;;;;;;10.35;9.23;;;;;;;-148.88;100.00;-17125.47;4938229;29;20110;-72
2023/09/09 01:40:10;;;;;;;10.30;8.95;;;;;;;-148.88;100.00;-17125.47;4936942;29;20074;-72
2023/09/09 01:42:36;;;;;;;11.13;9.60;;;;;;;-148.88;100.00;-17125.47;4938173;29;20423;-72
2023/09/09 01:45:02;;;;;;;9.88;8.68;;;;;;;-148.88;100.00;-17125.47;4938213;29;20062;-72
2023/09/09 01:47:28;;;;;;;10.52;8.77;;;;;;;-148.88;100.00;-17125.47;4936453;29;20023;-71
2023/09/09 01:49:53;;;;;;;9.75;8.73;;;;;;;-148.88;100.00;-17125.47;4937960;29;20038;-71
2023/09/09 01:52:21;;;;;;;10.82;8.48;;;;;;;-148.88;100.00;-17125.47;4938037;29;20040;-71
2023/09/09 01:54:46;;;;;;;11.60;9.18;;;;;;;-148.88;100.00;-17125.47;4937997;29;20375;-71
2023/09/09 01:57:13;;;;;;;9.93;8.23;;;;;;;-148.88;100.00;-17125.47;4938056;29;20024;-71
2023/09/09 01:59:38;;;;;;;12.63;8.45;;;;;;;-148.88;100.00;-17125.47;4936582;29;20467;-72
2023/09/09 02:02:04;;;;;;;10.73;8.20;;;;;;;-148.88;100.00;-17125.47;4938131;29;20400;-71
2023/09/09 02:04:29;;;;;;;9.50;8.48;;;;;;;-148.88;100.00;-17125.47;4936931;29;20420;-72
2023/09/09 02:06:54;;;;;;;9.65;7.97;;;;;;;-148.88;100.00;-17125.47;4937786;29;20107;-72
2023/09/09 02:09:20;;;;;;;11.13;8.63;;;;;;;-148.88;100.00;-17125.47;4937374;29;20036;-71
2023/09/09 02:11:45;;;;;;;9.70;8.70;;;;;;;-148.88;100.00;-17125.47;4937094;29;20107;-71
2023/09/09 02:14:11;;;;;;;11.18;8.98;;;;;;;-148.88;100.00;-17125.47;4937061;29;20058;-72
2023/09/09 02:16:36;;;;;;;11.35;9.02;;;;;;;-148.88;100.00;-17125.47;4937012;29;20028;-71
2023/09/09 02:19:01;;;;;;;12.23;9.90;;;;;;;-148.88;100.00;-17125.47;4937050;29;20031;-72
2023/09/09 02:21:29;;;;;;;11.48;8.90;;;;;;;-148.88;100.00;-17125.47;4935707;29;20110;-72
2023/09/09 02:23:54;;;;;;;12.10;10.60;;;;;;;-148.88;100.00;-17125.47;4937007;29;20031;-72
2023/09/09 02:26:19;;;;;;;10.45;9.40;;;;;;;-148.88;100.00;-17125.47;4936858;29;20024;-71
2023/09/09 02:28:46;;;;;;;11.95;10.10;;;;;;;-148.88;100.00;-17125.47;4936862;29;20031;-72
2023/09/09 02:31:13;;;;;;;12.05;10.50;;;;;;;-148.88;100.00;-17125.47;4935654;29;20027;-72
2023/09/09 02:33:39;;;;;;;13.52;10.55;;;;;;;-148.88;100.00;-17125.47;4936966;29;20083;-72
2023/09/09 02:36:04;;;;;;;13.57;10.93;;;;;;;-148.88;100.00;-17125.47;4936676;29;20135;-71
2023/09/09 02:38:30;;;;;;;13.75;10.30;;;;;;;-148.88;100.00;-17125.47;4935412;29;20122;-71
2023/09/09 02:40:55;;;;;;;12.57;10.63;;;;;;;-148.88;100.00;-17125.47;4936930;29;20149;-72
2023/09/09 02:43:20;;;;;;;10.75;9.63;;;;;;;-148.88;100.00;-17125.47;4935331;29;20028;-72
2023/09/09 02:45:46;;;;;;;10.77;9.65;;;;;;;-148.88;100.00;-17125.47;4936563;29;20394;-72
2023/09/09 02:48:11;;;;;;;12.60;9.23;;;;;;;-148.88;100.00;-17125.47;4936324;29;20418;-72
2023/09/09 02:50:36;;;;;;;13.77;9.93;;;;;;;-148.88;100.00;-17125.47;4936314;29;20383;-72
2023/09/09 02:53:02;;;;;;;13.68;9.50;;;;;;;-148.88;100.00;-17125.47;4936392;29;20028;-72
2023/09/09 02:55:27;;;;;;;10.43;9.32;;;;;;;-148.88;100.00;-17125.47;4936159;29;20489;-72
2023/09/09 02:57:53;;;;;;;12.27;9.45;;;;;;;-148.88;100.00;-17125.47;4936268;29;20032;-72
2023/09/09 03:00:18;;;;;;;13.27;9.82;;;;;;;-148.88;100.00;-17125.47;4934809;29;20083;-72
2023/09/09 03:02:44;;;;;;;10.48;8.90;;;;;;;-148.88;100.00;-17125.47;4936096;29;20075;-72
2023/09/09 03:05:10;;;;;;;9.98;8.80;;;;;;;-148.88;100.00;-17125.47;4936363;29;20019;-72
2023/09/09 03:07:35;;;;;;;11.57;9.52;;;;;;;-148.88;100.00;-17125.47;4936027;29;20098;-72
2023/09/09 03:10:01;;;;;;;12.77;9.60;;;;;;;-148.88;100.00;-17125.47;4936232;29;20027;-72
2023/09/09 03:12:26;;;;;;;10.00;9.00;;;;;;;-148.88;100.00;-17125.47;4936526;29;20038;-72
2023/09/09 03:14:52;;;;;;;11.90;9.77;;;;;;;-148.88;100.00;-17125.47;4936221;29;20462;-73
2023/09/09 03:17:18;;;;;;;12.38;9.43;;;;;;;-148.88;100.00;-17125.47;4936167;29;20423;-72
2023/09/09 03:19:43;;;;;;;12.20;10.38;;;;;;;-148.88;100.00;-17125.47;4936149;29;20103;-73
2023/09/09 03:22:08;;;;;;;11.43;10.20;;;;;;;-148.88;100.00;-17125.47;4935988;29;20099;-72
2023/09/09 03:24:34;;;;;;;11.75;9.93;;;;;;;-148.88;100.00;-17125.47;4935745;29;20024;-72
2023/09/09 03:26:59;;;;;;;11.60;10.02;;;;;;;-148.88;100.00;-17125.47;4935885;29;20023;-72
2023/09/09 03:29:25;;;;;;;11.10;9.98;;;;;;;-148.88;100.00;-17125.47;4935855;29;20036;-72
2023/09/09 03:31:50;;;;;;;12.15;9.80;;;;;;;-148.88;100.00;-17125.47;4936061;29;20082;-72
2023/09/09 03:34:15;;;;;;;11.60;10.10;;;;;;;-148.88;100.00;-17125.47;4935627;29;20055;-71
2023/09/09 03:36:42;;;;;;;13.32;10.18;;;;;;;-148.88;100.00;-17125.47;4935356;29;20031;-71
2023/09/09 03:39:08;;;;;;;12.82;11.13;;;;;;;-148.88;100.00;-17125.47;4935640;29;20028;-71
2023/09/09 03:41:33;;;;;;;12.30;9.23;;;;;;;-148.88;100.00;-17125.47;4935421;29;20079;-71
2023/09/09 03:43:59;;;;;;;13.32;9.85;;;;;;;-148.88;100.00;-17125.47;4935510;29;20090;-72
2023/09/09 03:46:24;;;;;;;11.35;10.13;;;;;;;-148.88;100.00;-17125.47;4935232;29;20062;-71
2023/09/09 03:48:50;;;;;;;14.90;10.38;;;;;;;-148.88;100.00;-17125.47;4935474;29;20547;-72
2023/09/09 03:51:16;;;;;;;11.18;9.95;;;;;;;-148.88;100.00;-17125.47;4935301;29;20031;-71
2023/09/09 03:53:41;;;;;;;14.73;10.40;;;;;;;-148.88;100.00;-17125.47;4935484;29;20019;-71
2023/09/09 03:56:07;;;;;;;11.73;9.80;;;;;;;-148.88;100.00;-17125.47;4935224;29;20063;-70
2023/09/09 03:58:32;;;;;;;11.23;10.10;;;;;;;-148.88;100.00;-17125.47;4935431;29;20028;-72
2023/09/09 04:01:15;;;;;;;11.50;10.30;;;;;;;-148.88;100.00;-17125.47;4935155;29;20027;-71
2023/09/09 04:03:41;;;;;;;12.07;10.35;;;;;;;-148.88;100.00;-17125.47;4935343;29;20051;-72
2023/09/09 04:06:08;;;;;;;10.95;9.80;;;;;;;-148.88;100.00;-17125.47;4934972;29;20090;-71
2023/09/09 04:08:35;;;;;;;11.40;10.20;;;;;;;-148.88;100.00;-17125.47;4935472;29;20050;-71
2023/09/09 04:11:01;;;;;;;11.73;10.38;;;;;;;-148.88;100.00;-17125.47;4934872;29;20115;-72
2023/09/09 04:13:27;;;;;;;13.68;10.98;;;;;;;-148.88;100.00;-17125.47;4934779;29;20031;-71
2023/09/09 04:15:53;;;;;;;11.55;10.38;;;;;;;-148.88;100.00;-17125.47;4934750;29;20031;-71
2023/09/09 04:18:19;;;;;;;12.02;10.73;;;;;;;-148.88;100.00;-17125.47;4934766;29;20482;-72
2023/09/09 04:20:45;;;;;;;13.07;10.75;;;;;;;-148.88;100.00;-17125.47;4934967;29;20059;-71
2023/09/09 04:23:13;;;;;;;12.88;11.00;;;;;;;-148.88;100.00;-17125.47;4933612;29;20030;-71
2023/09/09 04:25:38;;;;;;;14.05;11.00;;;;;;;-148.88;100.00;-17125.47;4934720;29;20394;-72
2023/09/09 04:28:05;;;;;;;12.20;10.85;;;;;;;-148.88;100.00;-17125.47;4934782;29;20486;-72
2023/09/09 04:30:30;;;;;;;12.38;11.18;;;;;;;-148.88;100.00;-17125.47;4934899;29;20103;-73
2023/09/09 04:32:56;;;;;;;12.88;11.55;;;;;;;-148.88;100.00;-17125.47;4933453;29;20028;-72
2023/09/09 04:35:23;;;;;;;14.27;12.10;;;;;;;-148.88;100.00;-17125.47;4933984;29;20057;-71
2023/09/09 04:37:50;;;;;;;15.48;12.95;;;;;;;-148.88;100.00;-17125.47;4933245;29;20086;-72
2023/09/09 04:40:16;;;;;;;12.73;11.30;;;;;;;-148.88;100.00;-17125.47;4933640;29;20023;-71
2023/09/09 04:42:41;;;;;;;15.23;12.13;;;;;;;-148.88;100.00;-17125.47;4933014;29;20103;-71
2023/09/09 04:45:07;;;;;;;14.70;12.80;;;;;;;-148.88;100.00;-17125.47;4934254;29;20027;-72
2023/09/09 04:47:33;;;;;;;15.13;11.93;;;;;;;-148.88;100.00;-17125.47;4934390;29;20404;-72
2023/09/09 04:49:58;;;;;;;16.05;12.57;;;;;;;-148.88;100.00;-17125.47;4934490;29;20467;-72
2023/09/09 04:52:24;;;;;;;14.05;11.10;;;;;;;-148.88;100.00;-17125.47;4934166;29;20024;-72
2023/09/09 04:54:49;;;;;;;15.82;12.52;;;;;;;-148.88;100.00;-17125.47;4934179;29;20094;-72
2023/09/09 04:57:15;;;;;;;15.20;12.35;;;;;;;-148.88;100.00;-17125.47;4934060;29;20398;-73
2023/09/09 04:59:41;;;;;;;14.43;11.38;;;;;;;-148.88;100.00;-17125.47;4934271;29;20490;-72
2023/09/09 05:02:07;;;;;;;14.20;12.43;;;;;;;-148.88;100.00;-17125.47;4933079;29;20035;-72
2023/09/09 05:04:32;;;;;;;15.82;12.45;;;;;;;-148.88;100.00;-17125.47;4934348;29;20106;-72
2023/09/09 05:06:58;;;;;;;14.55;11.63;;;;;;;-148.88;100.00;-17125.47;4932997;29;20024;-73
2023/09/09 05:09:23;;;;;;;15.45;12.23;;;;;;;-148.88;100.00;-17125.47;4934373;29;20028;-72
2023/09/09 05:11:48;;;;;;;12.95;11.27;;;;;;;-148.88;100.00;-17125.47;4934325;29;20024;-72
2023/09/09 05:14:14;;;;;;;12.80;10.13;;;;;;;-148.88;100.00;-17125.47;4933074;29;20032;-72
2023/09/09 05:16:39;;;;;;;14.15;12.18;;;;;;;-148.88;100.00;-17125.47;4934378;29;20028;-72
2023/09/09 05:19:05;;;;;;;14.40;12.07;;;;;;;-148.88;100.00;-17125.47;4934267;29;20027;-73
2023/09/09 05:21:30;;;;;;;14.60;12.07;;;;;;;-148.88;100.00;-17125.47;4934361;29;20110;-72
2023/09/09 05:23:55;;;;;;;13.98;12.50;;;;;;;-148.88;100.00;-17125.47;4934334;29;20066;-73
2023/09/09 05:26:21;;;;;;;13.93;12.27;;;;;;;-148.88;100.00;-17125.47;4934381;29;20039;-72
2023/09/09 05:28:46;;;;;;;16.45;12.55;;;;;;;-148.88;100.00;-17125.47;4934708;29;20039;-75
2023/09/09 05:31:13;;;;;;;13.82;12.20;;;;;;;-148.88;100.00;-17125.47;4935444;29;20031;-78
2023/09/09 05:33:39;;;;;;;15.02;13.30;;;;;;;-148.88;100.00;-17125.47;4933466;29;20040;-74
2023/09/09 05:36:04;;;;;;;17.42;13.40;;;;;;;-148.88;100.00;-17125.47;4934227;29;20482;-74
2023/09/09 05:38:30;;;;;;;15.80;13.52;;;;;;;-148.88;100.00;-17125.47;4934266;29;20023;-75
2023/09/09 05:40:55;;;;;;;16.40;13.52;;;;;;;-148.88;100.00;-17125.47;4934449;29;20031;-73
2023/09/09 05:43:21;;;;;;;16.50;13.50;;;;;;;-148.88;100.00;-17125.47;4934368;29;20024;-73
2023/09/09 05:45:47;;;;;;;16.27;13.88;;;;;;;-148.88;100.00;-17125.47;4934865;29;20063;-74
2023/09/09 05:48:12;;;;;;;16.05;13.65;;;;;;;-148.88;100.00;-17125.47;4937646;29;20374;-73
2023/09/09 05:50:37;;;;;;;16.33;13.45;;;;;;;-148.88;100.00;-17125.47;4937764;29;20023;-74
2023/09/09 05:53:03;;;;;;;15.95;13.23;;;;;;;-148.88;100.00;-17125.47;4937613;29;20320;-74
2023/09/09 05:55:29;;;;;;;15.57;13.57;;;;;;;-148.88;100.00;-17125.47;4937589;29;20028;-74
2023/09/09 05:57:55;;;;;;;16.27;14.13;;;;;;;-148.88;100.00;-17125.47;4937399;29;20134;-73
2023/09/09 06:00:20;;;;;;;16.30;13.63;;;;;;;-148.88;100.00;-17125.47;4937517;29;20024;-75
2023/09/09 06:02:46;;;;;;;15.80;13.63;;;;;;;-148.88;100.00;-17125.47;4937339;29;20019;-73
2023/09/09 06:05:13;;;;;;;16.02;12.65;;;;;;;-148.88;100.00;-17125.47;4937789;29;20031;-73
2023/09/09 06:07:39;;;;;;;15.35;13.50;;;;;;;-148.88;100.00;-17125.47;4937127;29;20457;-73
2023/09/09 06:10:05;;;;;;;15.02;13.35;;;;;;;-148.88;100.00;-17125.47;4937402;29;20127;-73
2023/09/09 06:12:31;;;;;;;15.13;12.57;;;;;;;-148.88;100.00;-17125.47;4937380;29;20182;-73
2023/09/09 06:14:56;;;;;;;14.60;13.00;;;;;;;-148.88;100.00;-17125.47;4937103;29;20509;-74
2023/09/09 06:17:21;;;;;;;14.32;12.82;;;;;;;-148.88;100.00;-17125.47;4937028;29;20494;-73
2023/09/09 06:19:47;;;;;;;14.68;13.13;;;;;;;-148.88;100.00;-17125.47;4937336;29;20019;-74
2023/09/09 06:22:12;;;;;;;15.18;12.88;;;;;;;-148.88;100.00;-17125.47;4937150;29;20090;-73
2023/09/09 06:24:38;;;;;;;16.50;13.00;;;;;;;-148.88;100.00;-17125.47;4937101;29;20106;-73
2023/09/09 06:27:03;;;;;;;15.93;12.75;;;;;;;-148.88;100.00;-17125.47;4936953;29;20052;-74
2023/09/09 06:29:29;;;;;;;14.63;13.00;;;;;;;-148.88;100.00;-17125.47;4936822;29;20410;-73
2023/09/09 06:31:54;;;;;;;14.00;12.60;;;;;;;-148.88;100.00;-17125.47;4936769;29;20092;-74
2023/09/09 06:34:21;;;;;;;16.48;12.68;;;;;;;-148.88;100.00;-17125.47;4936716;29;20145;-74
2023/09/09 06:36:46;;;;;;;16.08;13.20;;;;;;;-148.88;100.00;-17125.47;4936783;29;20098;-73
2023/09/09 06:39:11;;;;;;;14.18;12.68;;;;;;;-148.88;100.00;-17125.47;4936649;29;20163;-73
2023/09/09 06:41:37;;;;;;;16.98;12.88;;;;;;;-148.88;100.00;-17125.47;4936702;29;20451;-73
2023/09/09 06:44:03;;;;;;;16.20;12.57;;;;;;;-148.88;100.00;-17125.47;4936634;29;20039;-74
2023/09/09 06:46:28;;;;;;;13.95;11.90;;;;;;;-148.88;100.00;-17125.47;4936464;29;20032;-73
2023/09/09 06:48:54;;;;;;;14.05;12.65;;;;;;;-148.88;100.00;-17125.47;4936720;29;20173;-74
2023/09/09 06:51:19;;;;;;;18.33;12.35;;;;;;;-148.88;100.00;-17125.47;4936537;29;20063;-73
2023/09/09 06:53:45;;;;;;;16.20;12.45;;;;;;;-148.88;100.00;-17125.47;4936389;29;20051;-75
2023/09/09 06:56:10;;;;;;;15.70;13.23;;;;;;;-148.88;100.00;-17125.47;4936347;29;20534;-73
2023/09/09 06:58:35;;;;;;;17.00;13.13;;;;;;;-148.88;100.00;-17125.47;4935768;29;20414;-74
2023/09/09 07:01:02;;;;;;;15.15;12.23;;;;;;;-148.88;100.00;-17125.47;4936911;29;20099;-74
2023/09/09 07:03:28;;;;;;;15.95;12.43;;;;;;;-148.88;100.00;-17125.47;4936219;29;20086;-74
2023/09/09 07:05:54;;;;;;;16.38;13.25;;;;;;;-148.88;100.00;-17125.47;4935011;29;20023;-74
2023/09/09 07:08:19;;;;;;;15.70;12.40;;;;;;;-148.88;100.00;-17125.47;4936313;29;20024;-74
2023/09/09 07:11:02;;;;;;;17.80;12.27;;;;;;;-148.88;100.00;-17125.47;4935107;29;20489;-75
2023/09/09 07:13:28;;;;;;;15.75;11.85;;;;;;;-148.88;100.00;-17125.47;4936553;29;20114;-74
2023/09/09 07:15:53;;;;;;;13.93;11.63;;;;;;;-148.88;100.00;-17125.47;4936184;29;20205;-74
2023/09/09 07:18:20;;;;;;;13.65;11.88;;;;;;;-148.88;100.00;-17125.47;4936019;29;20031;-74
2023/09/09 07:20:46;;;;;;;15.55;11.60;;;;;;;-148.88;100.00;-17125.47;4934910;29;20027;-74
2023/09/09 07:23:14;;;;;;;15.00;11.50;;;;;;;-148.88;100.00;-17125.47;4935023;29;20027;-74
2023/09/09 07:25:39;;;;;;;15.15;10.70;;;;;;;-148.88;100.00;-17125.47;4936260;29;20046;-74
2023/09/09 07:28:05;;;;;;;12.25;10.32;;;;;;;-148.88;100.00;-17125.47;4936060;29;20462;-74
2023/09/09 07:30:32;;;;;;;12.68;10.43;;;;;;;-148.88;100.00;-17125.47;4935956;29;20031;-74
2023/09/09 07:32:58;;;;;;;12.02;10.57;;;;;;;-148.88;100.00;-17125.47;4935780;29;20060;-74
2023/09/09 07:35:23;;;;;;;14.73;10.95;;;;;;;-148.88;100.00;-17125.47;4935851;29;20063;-74
2023/09/09 07:37:49;;;;;;;12.02;9.40;;;;;;;-148.88;100.00;-17125.47;4934503;29;20023;-74
2023/09/09 07:40:14;;;;;;;11.23;9.23;;;;;;;-148.88;100.00;-17125.47;4935821;29;20397;-73
2023/09/09 07:42:40;;;;;;;11.45;9.85;;;;;;;-148.88;100.00;-17125.47;4935495;29;20546;-73
2023/09/09 07:45:06;;;;;;;11.68;9.35;;;;;;;-148.88;100.00;-17125.47;4935587;29;20457;-74
2023/09/09 07:47:31;;;;;;;10.27;9.00;;;;;;;-148.88;100.00;-17125.47;5014606;23;20151;-73
2023/09/09 07:49:57;;;;;;;10.30;8.52;;;;;;;-148.88;100.00;-17125.47;4935503;29;20027;-73
2023/09/09 07:52:22;;;;;;;10.32;8.63;;;;;;;-148.88;100.00;-17125.47;4933959;29;20082;-73
2023/09/09 07:54:49;;;;;;;11.25;9.35;;;;;;;-148.88;100.00;-17125.47;4933885;29;20027;-73
2023/09/09 07:57:14;;;;;;;9.52;8.52;;;;;;;-148.88;100.00;-17125.47;4935125;29;20058;-73
2023/09/09 07:59:40;;;;;;;10.90;8.10;;;;;;;-148.88;100.00;-17125.47;4935106;29;20477;-74
2023/09/09 08:02:05;;;;;;;12.50;8.85;;;;;;;-148.88;100.00;-17125.47;4933918;29;20024;-74
2023/09/09 08:04:31;;;;;;;11.52;8.20;;;;;;;-148.88;100.00;-17125.47;4935011;29;20053;-73
2023/09/09 08:06:56;;;;;;;10.85;8.85;;;;;;;-148.88;100.00;-17125.47;4934973;29;20107;-73
2023/09/09 08:09:22;;;;;;;12.60;8.00;;;;;;;-148.88;100.00;-17125.47;4934846;29;20028;-73
2023/09/09 08:11:47;;;;;;;9.35;7.55;;;;;;;-148.88;100.00;-17125.47;4933728;29;20059;-74
2023/09/09 08:14:13;;;;;;;9.32;7.95;;;;;;;-148.88;100.00;-17125.47;4935200;29;20087;-73
2023/09/09 08:16:40;;;;;;;9.32;8.20;;;;;;;-148.88;100.00;-17125.47;4933507;29;20070;-73
2023/09/09 08:19:06;;;;;;;11.77;8.23;;;;;;;-148.88;100.00;-17125.47;4934922;29;20083;-73
2023/09/09 08:21:31;;;;;;;13.27;7.90;;;;;;;-148.88;100.00;-17125.47;4933524;29;20035;-74
2023/09/09 08:23:59;;;;;;;11.02;7.07;;;;;;;-148.88;100.00;-17125.47;4934898;29;20407;-74
2023/09/09 08:26:25;;;;;;;11.00;7.68;;;;;;;-148.88;100.00;-17125.47;4934766;29;20054;-73
2023/09/09 08:28:50;;;;;;;16.77;8.13;;;;;;;-148.88;100.00;-17125.47;4934890;29;20034;-74
2023/09/09 08:31:16;;;;;;;8.77;6.93;;;;;;;-148.88;100.00;-17125.47;4934789;29;20028;-73
2023/09/09 08:33:45;;;;;;;7.20;6.38;;;;;;;-148.88;100.00;-17125.47;4934758;29;20078;-73
2023/09/09 08:36:10;;;;;;;8.35;6.45;;;;;;;-148.88;100.00;-17125.47;4934507;29;20032;-73
2023/09/09 08:38:35;;;;;;;7.95;7.03;;;;;;;-148.88;100.00;-17125.47;4934787;29;20023;-73
2023/09/09 08:41:25;;;;;;;9.00;6.80;;;;;;;-148.88;100.00;-17125.47;4934761;29;20020;-73
2023/09/09 08:44:25;;;;;;;9.60;7.03;;;;;;;-148.88;100.00;-17125.47;4934638;29;20027;-73
2023/09/09 08:46:51;;;;;;;7.30;6.53;;;;;;;-148.88;100.00;-17125.47;4933148;29;20082;-73
2023/09/09 08:49:19;;;;;;;9.52;6.95;;;;;;;-148.88;99.55;-17125.47;4933361;29;20508;-73
2023/09/09 08:52:06;;;;;;;8.20;5.97;;;;;;;-148.88;99.44;-17125.47;4934744;29;20094;-73
2023/09/09 08:54:32;;;;;;;7.80;6.40;;;;;;;-148.88;100.00;-17125.47;4934705;29;20070;-74
2023/09/09 08:57:00;;;;;;;8.63;6.25;;;;;;;-148.88;94.38;-17125.47;4934570;29;20039;-73
2023/09/09 08:59:28;;;;;;;8.18;6.70;;;;;;;-148.88;97.32;-17125.47;4934926;29;20024;-73
2023/09/09 09:01:54;;;;;;;9.75;7.68;;;;;;;-148.88;95.27;-17125.47;4934659;29;20024;-73
2023/09/09 09:04:21;;;;;;;10.05;7.30;;;;;;;-148.88;96.25;-17125.47;4933323;29;20505;-73
2023/09/09 09:06:48;;;;;;;8.20;6.82;;;;;;;-148.88;94.38;-17125.47;4934553;29;20474;-73
2023/09/09 09:09:16;;;;;;;8.07;6.50;;;;;;;-148.88;91.00;-17125.47;4934543;29;20024;-73
2023/09/09 09:11:44;;;;;;;9.38;7.35;;;;;;;-148.88;89.76;-17125.47;4934778;29;20027;-74
2023/09/09 09:14:09;;;;;;;10.90;7.32;;;;;;;-148.88;92.69;-17125.47;4934514;29;20371;-73
2023/09/09 09:16:40;;;;;;;8.95;6.13;;;;;;;-148.88;90.63;-17125.47;4934562;29;20031;-74
2023/09/09 09:19:05;;;;;;;8.88;5.70;;;;;;;-148.88;86.64;-17125.47;4933399;29;20106;-74
2023/09/09 09:21:35;;;;;;;8.52;6.40;;;;;;;-148.88;87.79;-17125.47;4936441;29;20493;-73
2023/09/09 09:24:02;;;;;;;7.82;6.35;;;;;;;-148.88;87.96;-17125.47;4938292;29;20031;-73
2023/09/09 09:26:29;;;;;;;8.77;6.30;;;;;;;-148.88;86.14;-17125.47;4936646;29;20478;-73
2023/09/09 09:28:55;;;;;;;8.93;6.30;;;;;;;-148.88;84.25;-17125.47;4938038;29;20398;-73
2023/09/09 09:31:22;;;;;;;7.50;6.22;;;;;;;-148.88;85.09;-17125.47;4938087;29;20530;-73
2023/09/09 09:33:50;;;;;;;8.15;6.63;;;;;;;-148.88;82.49;-17125.47;4936692;29;20030;-73
2023/09/09 09:36:17;;;;;;;9.00;5.18;;;;;;;-148.88;84.36;-17125.47;4937882;29;20027;-73
2023/09/09 09:38:43;;;;;;;5.53;4.85;;;;;;;-148.88;79.61;-17125.47;4938126;29;20027;-74
2023/09/09 09:41:09;;;;;;;8.50;5.38;;;;;;;-148.88;76.69;-17125.47;4938007;29;20397;-74
2023/09/09 09:43:35;;;;;;;7.50;5.00;;;;;;;-148.88;73.06;-17125.47;4937928;29;20031;-73
2023/09/09 09:46:14;;;;;;;8.05;5.03;;;;;;;-148.88;75.18;-17125.47;4937800;29;20028;-73
2023/09/09 09:48:39;;;;;;;5.72;4.85;;;;;;;-148.88;69.73;-17125.47;4937906;29;20042;-73
2023/09/09 09:51:05;;;;;;;6.60;5.28;;;;;;;-148.88;69.54;-17125.47;4936525;29;20024;-73
2023/09/09 09:53:30;;;;;;;5.50;4.88;;;;;;;-148.88;69.88;-17125.47;4937851;29;20142;-73
2023/09/09 09:55:56;;;;;;;8.10;5.13;;;;;;;-148.88;66.24;-17125.47;4937760;29;20024;-73
2023/09/09 09:58:25;;;;;;;5.72;4.30;;;;;;;-148.88;65.73;-17125.47;4936418;29;20110;-73
2023/09/09 10:00:53;;;;;;;5.93;4.57;;;;;;;-148.88;70.88;-17125.47;4937768;29;20035;-73
2023/09/09 10:03:22;;;;;;;7.47;5.25;;;;;;;-148.88;66.61;-17125.47;4937542;29;20024;-73
2023/09/09 10:05:52;;;;;;;6.72;5.05;;;;;;;-148.88;62.90;-17125.47;4937647;29;20482;-74
2023/09/09 10:08:28;;;;;;;8.25;4.90;;;;;;;-148.88;67.78;-17125.47;4937462;29;20127;-74
2023/09/09 10:11:05;;;;;;;9.00;5.68;;;;;;;-148.88;66.21;-17125.47;4937569;29;20095;-73
2023/09/09 10:13:40;;;;;;;9.45;4.70;;;;;;;-148.88;60.53;-17125.47;4937441;29;20063;-72
2023/09/09 10:16:07;;;;;;;6.75;4.72;;;;;;;-148.88;60.79;-17125.47;4937328;29;20440;-74
2023/09/09 10:18:35;;;;;;;6.47;4.97;;;;;;;-148.88;59.83;-17125.47;4936218;29;20031;-77
2023/09/09 10:21:01;;;;;;;6.95;4.60;;;;;;;-148.88;59.81;-17125.47;4937431;29;20027;-76
2023/09/09 10:23:30;;;;;;;9.23;4.97;;;;;;;-148.88;58.47;-17125.47;4937364;29;20135;-73
2023/09/09 10:25:57;;;;;;;5.97;4.55;;;;;;;-148.88;61.99;-17125.47;4937390;29;20023;-73
2023/09/09 10:28:24;;;;;;;6.72;4.63;;;;;;;-148.88;62.03;-17125.47;4935879;29;20037;-73
2023/09/09 10:30:50;;;;;;;7.40;4.85;;;;;;;-148.88;57.24;-17125.47;4937343;29;20079;-73
2023/09/09 10:33:18;;;;;;;6.20;4.65;;;;;;;-148.88;57.67;-17125.47;4937507;29;20059;-73
2023/09/09 10:35:45;;;;;;;6.95;4.90;;;;;;;-148.88;56.14;-17125.47;4937322;29;20043;-74
2023/09/09 10:38:14;;;;;;;5.00;4.50;;;;;;;-148.88;58.60;-17125.47;4937202;29;20039;-74
2023/09/09 10:40:40;;;;;;;5.82;4.88;;;;;;;-148.88;54.84;-17125.47;4937274;29;20075;-73
2023/09/09 10:43:06;;;;;;;7.72;5.07;;;;;;;-148.88;53.05;-17125.47;4936947;29;20059;-73
2023/09/09 10:45:34;;;;;;;7.00;4.50;;;;;;;-148.88;55.67;-17125.47;4936823;29;20051;-73
2023/09/09 10:48:05;;;;;;;7.72;4.65;;;;;;;-148.88;56.81;-17125.47;4936747;29;20254;-73
2023/09/09 10:50:43;;;;;;;5.32;4.40;;;;;;;-148.88;52.77;-17125.47;4936930;29;20398;-73
2023/09/09 10:53:28;;;;;;;5.03;4.40;;;;;;;-148.88;51.71;-17125.47;4937080;29;20367;-73